Time;durP1;ratioP1;P1;durP2;ratioP2;P2;SDS_P1;SDS_P2;PMS_P1;PMS_P2;Temp;Humidity;BMP_temperature;BMP_pressure;BME280_temperature;BME280_humidity;BME280_pressure;Samples;Min_cycle;Max_cycle;Signal;HPM_P1;HPM_P2
2023/12/29 00:01:47;;;;;;;;;;;7.80;99.90;;;;;;5005256;28;19918;-75
2023/12/29 00:04:13;;;;;;;;;;;7.80;99.90;;;;;;4998950;28;19948;-75
2023/12/29 00:06:39;;;;;;;;;;;7.80;99.90;;;;;;4997058;28;20307;-75
2023/12/29 00:09:04;;;;;;;;;;;7.80;99.90;;;;;;5022243;28;19913;-76
2023/12/29 00:11:30;;;;;;;;;;;7.70;99.90;;;;;;4996598;28;19920;-75
2023/12/29 00:13:56;;;;;;;;;;;7.80;99.90;;;;;;5005006;28;20052;-74
2023/12/29 00:16:21;;;;;;;;;;;7.80;99.90;;;;;;5001263;28;20405;-75
2023/12/29 00:18:47;;;;;;;;;;;7.80;99.90;;;;;;5009167;28;19940;-75
2023/12/29 00:21:12;;;;;;;;;;;7.70;99.90;;;;;;5002494;28;19925;-75
2023/12/29 00:23:38;;;;;;;;;;;7.80;99.90;;;;;;5006257;28;19913;-75
2023/12/29 00:26:04;;;;;;;;;;;7.80;99.90;;;;;;4996806;28;19917;-75
2023/12/29 00:28:29;;;;;;;;;;;7.80;99.90;;;;;;5003111;28;19952;-75
2023/12/29 00:30:55;;;;;;;;;;;7.80;99.90;;;;;;5018667;28;19964;-75
2023/12/29 00:33:21;;;;;;;;;;;7.80;99.90;;;;;;5007041;28;19922;-76
2023/12/29 00:35:46;;;;;;;;;;;7.80;99.90;;;;;;5001223;28;19972;-75
2023/12/29 00:38:12;;;;;;;;;;;7.80;99.90;;;;;;5005624;28;19925;-75
2023/12/29 00:40:38;;;;;;;;;;;7.80;99.90;;;;;;5006697;28;19921;-76
2023/12/29 00:43:04;;;;;;;;;;;7.80;99.90;;;;;;5007797;28;20344;-76
2023/12/29 00:45:32;;;;;;;;;;;7.80;99.90;;;;;;5002027;28;19976;-76
2023/12/29 00:47:58;;;;;;;;;;;7.80;99.90;;;;;;5007635;28;19917;-77
2023/12/29 00:50:24;;;;;;;;;;;7.80;99.90;;;;;;5002820;28;19909;-77
2023/12/29 00:52:50;;;;;;;;;;;7.80;99.90;;;;;;5006638;28;19925;-77
2023/12/29 00:55:16;;;;;;;;;;;7.80;99.90;;;;;;4991222;28;20007;-77
2023/12/29 00:57:42;;;;;;;;;;;7.80;99.90;;;;;;5025385;28;20353;-77
2023/12/29 01:00:10;;;;;;;;;;;7.80;99.90;;;;;;5020683;28;19917;-77
2023/12/29 01:02:54;;;;;;;;;;;7.80;99.90;;;;;;5004630;28;19921;-77
2023/12/29 01:05:20;;;;;;;;;;;7.80;99.90;;;;;;5009468;28;19921;-77
2023/12/29 01:07:46;;;;;;;;;;;7.80;99.90;;;;;;5006162;28;20004;-77
2023/12/29 01:10:13;;;;;;;;;;;7.80;99.90;;;;;;5007283;28;19928;-78
2023/12/29 01:12:39;;;;;;;;;;;7.80;99.90;;;;;;5009934;28;19910;-77
2023/12/29 01:15:08;;;;;;;;;;;7.80;99.90;;;;;;5007087;28;19932;-77
2023/12/29 01:17:34;;;;;;;;;;;7.80;99.90;;;;;;5007715;28;20048;-77
2023/12/29 01:19:59;;;;;;;;;;;7.80;99.90;;;;;;5025704;28;20000;-78
2023/12/29 01:22:25;;;;;;;;;;;7.80;99.90;;;;;;5002443;28;20007;-76
2023/12/29 01:24:51;;;;;;;;;;;7.70;99.90;;;;;;5000207;28;20389;-77
2023/12/29 01:27:17;;;;;;;;;;;7.70;99.90;;;;;;5004539;28;20001;-77
2023/12/29 01:29:43;;;;;;;;;;;7.70;99.90;;;;;;5002582;28;20315;-77
2023/12/29 01:32:10;;;;;;;;;;;7.70;99.90;;;;;;4998247;28;19918;-77
2023/12/29 01:34:36;;;;;;;;;;;7.80;99.90;;;;;;5005232;28;19929;-77
2023/12/29 01:37:02;;;;;;;;;;;7.70;99.90;;;;;;5010075;28;19918;-77
2023/12/29 01:39:29;;;;;;;;;;;7.70;99.90;;;;;;5001381;28;19928;-77
2023/12/29 01:41:55;;;;;;;;;;;7.80;99.90;;;;;;5002943;28;19945;-78
2023/12/29 01:44:21;;;;;;;;;;;7.80;99.90;;;;;;5008558;28;20030;-77
2023/12/29 01:46:51;;;;;;;;;;;7.80;99.90;;;;;;5011046;28;19968;-78
2023/12/29 01:49:18;;;;;;;;;;;7.80;99.90;;;;;;5008780;28;19918;-78
2023/12/29 01:51:45;;;;;;;;;;;7.80;99.90;;;;;;5008744;28;19922;-78
2023/12/29 01:54:11;;;;;;;;;;;7.80;99.90;;;;;;5011757;28;19933;-78
2023/12/29 01:56:37;;;;;;;;;;;7.80;99.90;;;;;;5008639;28;19952;-78
2023/12/29 01:59:04;;;;;;;;;;;7.90;99.90;;;;;;4997228;28;19960;-78
2023/12/29 02:01:29;;;;;;;;;;;7.90;99.90;;;;;;5010582;28;20410;-78
2023/12/29 02:03:55;;;;;;;;;;;7.90;99.90;;;;;;5005516;28;20016;-77
2023/12/29 02:06:21;;;;;;;;;;;7.90;99.90;;;;;;5008817;28;19922;-77
2023/12/29 02:08:47;;;;;;;;;;;7.90;99.90;;;;;;5008202;28;19940;-77
2023/12/29 02:11:13;;;;;;;;;;;7.90;99.90;;;;;;5002687;28;20361;-77
2023/12/29 02:13:39;;;;;;;;;;;7.90;99.90;;;;;;5005325;28;20024;-77
2023/12/29 02:16:08;;;;;;;;;;;7.90;99.90;;;;;;5003165;28;20017;-77
2023/12/29 02:18:35;;;;;;;;;;;7.90;99.90;;;;;;5023061;28;20301;-77
2023/12/29 02:21:02;;;;;;;;;;;7.90;99.90;;;;;;5000676;28;20009;-77
2023/12/29 02:23:28;;;;;;;;;;;8.00;99.90;;;;;;5009090;28;20377;-78
2023/12/29 02:25:58;;;;;;;;;;;7.90;99.90;;;;;;5024977;28;19925;-78
2023/12/29 02:28:24;;;;;;;;;;;8.00;99.90;;;;;;5004006;28;19928;-78
2023/12/29 02:31:00;;;;;;;;;;;7.90;99.90;;;;;;5004576;28;20271;-77
2023/12/29 02:33:26;;;;;;;;;;;7.90;99.90;;;;;;5025792;28;19968;-77
2023/12/29 02:35:52;;;;;;;;;;;8.00;99.90;;;;;;5004384;28;19922;-78
2023/12/29 02:38:19;;;;;;;;;;;8.00;99.90;;;;;;5024129;28;20325;-77
2023/12/29 02:40:45;;;;;;;;;;;8.00;99.90;;;;;;5024739;28;19920;-77
2023/12/29 02:43:11;;;;;;;;;;;8.00;99.90;;;;;;5010566;28;19926;-77
2023/12/29 02:45:36;;;;;;;;;;;8.00;99.90;;;;;;5018689;28;19925;-76
2023/12/29 02:48:02;;;;;;;;;;;8.00;99.90;;;;;;5007838;28;19921;-77
2023/12/29 02:50:28;;;;;;;;;;;8.00;99.90;;;;;;5008336;28;19969;-77
2023/12/29 02:52:53;;;;;;;;;;;8.00;99.90;;;;;;5006048;28;19940;-77
2023/12/29 02:55:19;;;;;;;;;;;7.90;99.90;;;;;;5009484;28;19921;-78
2023/12/29 02:57:45;;;;;;;;;;;7.90;99.90;;;;;;5007967;28;19995;-78
2023/12/29 03:00:11;;;;;;;;;;;7.80;99.90;;;;;;5008414;28;19964;-77
2023/12/29 03:02:36;;;;;;;;;;;7.80;99.90;;;;;;5005402;28;19914;-78
2023/12/29 03:05:03;;;;;;;;;;;7.80;99.90;;;;;;5012455;28;19917;-78
2023/12/29 03:07:28;;;;;;;;;;;7.80;99.90;;;;;;5009461;28;19914;-83
2023/12/29 03:09:55;;;;;;;;;;;7.80;99.90;;;;;;5008921;28;20325;-78
2023/12/29 03:12:20;;;;;;;;;;;7.80;99.90;;;;;;5008172;28;20012;-78
2023/12/29 03:14:49;;;;;;;;;;;7.80;99.90;;;;;;5015791;28;20606;-79
2023/12/29 03:17:15;;;;;;;;;;;7.80;99.90;;;;;;5004910;28;19924;-77
2023/12/29 03:19:40;;;;;;;;;;;7.80;99.90;;;;;;5011058;28;19917;-77
2023/12/29 03:22:06;;;;;;;;;;;7.90;99.90;;;;;;5030178;28;19913;-79
2023/12/29 03:24:32;;;;;;;;;;;8.00;99.90;;;;;;5031651;28;19918;-78
2023/12/29 03:26:57;;;;;;;;;;;8.00;99.90;;;;;;5015078;28;19914;-79
2023/12/29 03:29:23;;;;;;;;;;;8.00;99.90;;;;;;5009435;28;19913;-78
2023/12/29 03:31:48;;;;;;;;;;;7.90;99.90;;;;;;5012896;28;19925;-76
2023/12/29 03:34:14;;;;;;;;;;;8.00;99.90;;;;;;5014712;28;19977;-78
2023/12/29 03:36:40;;;;;;;;;;;8.00;99.90;;;;;;5008564;28;19953;-78
2023/12/29 03:39:05;;;;;;;;;;;8.00;99.90;;;;;;5008485;28;19926;-78
2023/12/29 03:41:31;;;;;;;;;;;7.90;99.90;;;;;;5005478;28;19929;-77
2023/12/29 03:43:59;;;;;;;;;;;8.00;99.90;;;;;;5009004;28;19949;-78
2023/12/29 03:46:25;;;;;;;;;;;8.00;99.90;;;;;;5004692;28;20381;-78
2023/12/29 03:48:51;;;;;;;;;;;8.00;99.90;;;;;;5015342;28;19913;-77
2023/12/29 03:51:17;;;;;;;;;;;7.90;99.90;;;;;;5012001;28;19913;-78
2023/12/29 03:53:43;;;;;;;;;;;8.00;99.90;;;;;;5012524;28;19929;-78
2023/12/29 03:56:12;;;;;;;;;;;8.00;99.90;;;;;;5012664;28;19980;-78
2023/12/29 03:58:38;;;;;;;;;;;8.00;99.90;;;;;;5009858;28;19936;-77
2023/12/29 04:01:03;;;;;;;;;;;7.90;99.90;;;;;;5009336;28;19918;-77
2023/12/29 04:03:29;;;;;;;;;;;8.00;99.90;;;;;;5030608;28;19913;-77
2023/12/29 04:05:55;;;;;;;;;;;7.90;99.90;;;;;;5010020;28;19929;-78
2023/12/29 04:08:20;;;;;;;;;;;8.00;99.90;;;;;;5012248;28;19928;-78
2023/12/29 04:10:46;;;;;;;;;;;7.90;99.90;;;;;;5010203;28;19917;-78
2023/12/29 04:13:12;;;;;;;;;;;7.90;99.90;;;;;;5025359;28;19964;-78
2023/12/29 04:15:38;;;;;;;;;;;7.90;99.90;;;;;;5006770;28;19922;-78
2023/12/29 04:18:04;;;;;;;;;;;7.90;99.90;;;;;;5021631;28;19933;-78
2023/12/29 04:20:30;;;;;;;;;;;7.90;99.90;;;;;;5010584;28;19910;-78
2023/12/29 04:22:55;;;;;;;;;;;7.90;99.90;;;;;;5013841;28;20785;-78
2023/12/29 04:25:21;;;;;;;;;;;7.90;99.90;;;;;;5017861;28;19968;-78
2023/12/29 04:27:46;;;;;;;;;;;7.90;99.90;;;;;;5018100;28;19922;-78
2023/12/29 04:30:12;;;;;;;;;;;7.90;99.90;;;;;;5015010;28;19993;-78
2023/12/29 04:32:38;;;;;;;;;;;7.90;99.90;;;;;;5015379;28;19975;-78
2023/12/29 04:35:04;;;;;;;;;;;7.90;99.90;;;;;;5007361;28;19925;-78
2023/12/29 04:37:30;;;;;;;;;;;7.90;99.90;;;;;;4997909;28;20374;-78
2023/12/29 04:39:56;;;;;;;;;;;7.90;99.90;;;;;;5013921;28;19924;-78
2023/12/29 04:42:22;;;;;;;;;;;7.90;99.90;;;;;;5012146;28;19921;-77
2023/12/29 04:44:47;;;;;;;;;;;7.90;99.90;;;;;;5031232;28;19956;-78
2023/12/29 04:47:13;;;;;;;;;;;7.80;99.90;;;;;;5015232;28;19920;-77
2023/12/29 04:49:38;;;;;;;;;;;7.80;99.90;;;;;;5014697;28;19924;-77
2023/12/29 04:52:04;;;;;;;;;;;7.80;99.90;;;;;;5015088;28;19949;-78
2023/12/29 04:54:30;;;;;;;;;;;7.70;99.90;;;;;;5015742;28;19917;-78
2023/12/29 04:56:55;;;;;;;;;;;7.70;99.90;;;;;;5012780;28;19937;-78
2023/12/29 04:59:21;;;;;;;;;;;7.60;99.90;;;;;;5018325;28;19918;-77
2023/12/29 05:01:47;;;;;;;;;;;7.60;99.90;;;;;;5015864;28;19922;-77
2023/12/29 05:04:14;;;;;;;;;;;7.60;99.90;;;;;;5015851;28;19928;-78
2023/12/29 05:06:40;;;;;;;;;;;7.60;99.90;;;;;;5013121;28;19917;-78
2023/12/29 05:09:06;;;;;;;;;;;7.70;99.90;;;;;;5011179;28;20304;-78
2023/12/29 05:11:32;;;;;;;;;;;7.60;99.90;;;;;;5017643;28;19914;-78
2023/12/29 05:13:57;;;;;;;;;;;7.60;99.90;;;;;;5014180;28;19949;-78
2023/12/29 05:16:23;;;;;;;;;;;7.60;99.90;;;;;;5011460;28;20306;-76
2023/12/29 05:18:49;;;;;;;;;;;7.60;99.90;;;;;;5025403;28;19922;-78
2023/12/29 05:21:16;;;;;;;;;;;7.60;99.90;;;;;;5015849;28;19921;-79
2023/12/29 05:23:42;;;;;;;;;;;7.70;99.90;;;;;;5017699;28;19955;-77
2023/12/29 05:26:07;;;;;;;;;;;7.60;99.90;;;;;;5015153;28;19922;-77
2023/12/29 05:28:33;;;;;;;;;;;7.70;99.90;;;;;;5018064;28;19957;-78
2023/12/29 05:31:03;;;;;;;;;;;7.70;99.90;;;;;;5016677;28;19917;-78
2023/12/29 05:33:29;;;;;;;;;;;7.70;99.90;;;;;;5026035;28;19945;-77
2023/12/29 05:35:54;;;;;;;;;;;7.60;99.90;;;;;;5011965;28;19922;-78
2023/12/29 05:38:20;;;;;;;;;;;7.60;99.90;;;;;;5018452;28;19932;-78
2023/12/29 05:40:45;;;;;;;;;;;7.60;99.90;;;;;;5011002;28;19927;-78
2023/12/29 05:43:11;;;;;;;;;;;7.60;99.90;;;;;;5016909;28;19944;-79
2023/12/29 05:45:37;;;;;;;;;;;7.60;99.90;;;;;;5016086;28;19928;-78
2023/12/29 05:48:02;;;;;;;;;;;7.50;99.90;;;;;;5018191;28;20089;-77
2023/12/29 05:50:28;;;;;;;;;;;7.50;99.90;;;;;;5010685;28;20287;-78
2023/12/29 05:52:54;;;;;;;;;;;7.50;99.90;;;;;;5012775;28;20394;-78
2023/12/29 05:55:19;;;;;;;;;;;7.50;99.90;;;;;;5009025;28;19925;-77
2023/12/29 05:57:45;;;;;;;;;;;7.40;99.90;;;;;;5012306;28;19953;-78
2023/12/29 06:00:14;;;;;;;;;;;7.30;99.90;;;;;;5006155;28;20008;-77
2023/12/29 06:02:41;;;;;;;;;;;7.30;99.90;;;;;;5013354;28;19933;-76
2023/12/29 06:05:06;;;;;;;;;;;7.30;99.90;;;;;;5033083;28;19910;-79
2023/12/29 06:07:33;;;;;;;;;;;7.20;99.90;;;;;;5017055;28;19939;-78
2023/12/29 06:09:58;;;;;;;;;;;7.20;99.90;;;;;;5013291;28;20302;-78
2023/12/29 06:12:28;;;;;;;;;;;7.20;99.90;;;;;;5012879;28;19918;-77
2023/12/29 06:14:53;;;;;;;;;;;7.10;99.90;;;;;;5011781;28;20377;-78
2023/12/29 06:17:19;;;;;;;;;;;7.00;99.90;;;;;;5007998;28;19929;-78
2023/12/29 06:19:48;;;;;;;;;;;7.00;99.90;;;;;;5012203;28;19955;-78
2023/12/29 06:22:14;;;;;;;;;;;7.00;99.90;;;;;;5025672;28;20431;-78
2023/12/29 06:24:40;;;;;;;;;;;7.00;99.90;;;;;;5011644;28;20348;-78
2023/12/29 06:27:08;;;;;;;;;;;7.00;99.90;;;;;;5004114;28;19921;-77
2023/12/29 06:29:33;;;;;;;;;;;7.00;99.90;;;;;;5010933;28;19920;-78
2023/12/29 06:31:59;;;;;;;;;;;7.00;99.90;;;;;;5006776;28;19917;-78
2023/12/29 06:34:25;;;;;;;;;;;7.00;99.90;;;;;;5012451;28;19917;-78
2023/12/29 06:36:51;;;;;;;;;;;7.00;99.90;;;;;;5010086;28;20367;-78
2023/12/29 06:39:16;;;;;;;;;;;7.00;99.90;;;;;;5012265;28;19921;-78
2023/12/29 06:41:42;;;;;;;;;;;6.90;99.90;;;;;;5004038;28;19972;-77
2023/12/29 06:44:08;;;;;;;;;;;6.90;99.90;;;;;;5009483;28;20032;-78
2023/12/29 06:46:33;;;;;;;;;;;6.90;99.90;;;;;;5007182;28;19918;-78
2023/12/29 06:48:59;;;;;;;;;;;6.80;99.90;;;;;;5011005;28;20365;-78
2023/12/29 06:51:24;;;;;;;;;;;6.80;99.90;;;;;;5000590;28;20312;-78
2023/12/29 06:53:50;;;;;;;;;;;6.80;99.90;;;;;;5006936;28;19965;-77
2023/12/29 06:56:17;;;;;;;;;;;6.70;99.90;;;;;;5000344;28;19921;-78
2023/12/29 06:58:43;;;;;;;;;;;6.70;99.90;;;;;;5005110;28;19937;-77
2023/12/29 07:01:09;;;;;;;;;;;6.60;99.90;;;;;;5006492;28;19925;-78
2023/12/29 07:03:34;;;;;;;;;;;6.60;99.90;;;;;;5005369;28;20377;-78
2023/12/29 07:06:01;;;;;;;;;;;6.60;99.90;;;;;;5008877;28;19985;-78
2023/12/29 07:08:27;;;;;;;;;;;6.50;99.90;;;;;;5007972;28;20322;-78
2023/12/29 07:10:52;;;;;;;;;;;6.50;99.90;;;;;;5005237;28;20011;-78
2023/12/29 07:13:19;;;;;;;;;;;6.50;99.90;;;;;;5004001;28;19922;-78
2023/12/29 07:15:45;;;;;;;;;;;6.50;99.90;;;;;;5003671;28;19968;-77
2023/12/29 07:18:11;;;;;;;;;;;6.50;99.90;;;;;;5006234;28;20598;-77
2023/12/29 07:20:36;;;;;;;;;;;6.50;99.90;;;;;;5007661;28;19918;-77
2023/12/29 07:23:02;;;;;;;;;;;6.60;99.90;;;;;;5007826;28;20033;-78
2023/12/29 07:25:28;;;;;;;;;;;6.60;99.90;;;;;;5006428;28;20041;-77
2023/12/29 07:27:54;;;;;;;;;;;6.70;99.90;;;;;;5006628;28;19918;-76
2023/12/29 07:30:19;;;;;;;;;;;6.70;99.90;;;;;;5003851;28;19975;-77
2023/12/29 07:32:45;;;;;;;;;;;6.70;99.90;;;;;;5008397;28;20305;-76
2023/12/29 07:35:10;;;;;;;;;;;6.70;99.90;;;;;;5006424;28;19929;-76
2023/12/29 07:37:36;;;;;;;;;;;6.70;99.90;;;;;;5007150;28;19926;-77
2023/12/29 07:40:03;;;;;;;;;;;6.70;99.90;;;;;;5004809;28;19921;-76
2023/12/29 07:42:29;;;;;;;;;;;6.80;99.90;;;;;;5006110;28;20004;-76
2023/12/29 07:44:56;;;;;;;;;;;6.80;99.90;;;;;;5008822;28;20020;-76
2023/12/29 07:47:22;;;;;;;;;;;6.80;99.90;;;;;;5005912;28;19917;-77
2023/12/29 07:49:47;;;;;;;;;;;6.80;99.90;;;;;;5007285;28;20038;-77
2023/12/29 07:52:13;;;;;;;;;;;6.90;99.90;;;;;;5004532;28;19940;-76
2023/12/29 07:54:39;;;;;;;;;;;6.90;99.90;;;;;;5004484;28;19953;-77
2023/12/29 07:57:06;;;;;;;;;;;7.00;99.90;;;;;;5002689;28;20216;-76
2023/12/29 07:59:32;;;;;;;;;;;7.00;99.90;;;;;;5006341;28;19973;-76
2023/12/29 08:01:58;;;;;;;;;;;7.10;99.90;;;;;;5002162;28;19975;-76
2023/12/29 08:04:23;;;;;;;;;;;7.20;99.90;;;;;;5006098;28;20012;-76
2023/12/29 08:06:49;;;;;;;;;;;7.20;99.90;;;;;;5009315;28;19988;-78
2023/12/29 08:09:14;;;;;;;;;;;7.20;99.90;;;;;;5012675;28;19913;-77
2023/12/29 08:11:42;;;;;;;;;;;7.30;99.90;;;;;;5011235;28;19944;-77
2023/12/29 08:14:08;;;;;;;;;;;7.30;99.90;;;;;;5010024;28;19918;-77
2023/12/29 08:16:40;;;;;;;;;;;7.30;99.90;;;;;;5012070;28;19924;-77
2023/12/29 08:19:06;;;;;;;;;;;7.40;99.90;;;;;;5013755;28;19924;-77
2023/12/29 08:21:32;;;;;;;;;;;7.50;99.90;;;;;;5011090;28;19961;-77
2023/12/29 08:23:57;;;;;;;;;;;7.50;99.90;;;;;;5013501;28;19918;-77
2023/12/29 08:26:23;;;;;;;;;;;7.50;99.90;;;;;;5006164;28;19961;-78
2023/12/29 08:28:49;;;;;;;;;;;7.60;99.90;;;;;;5007413;28;19929;-78
2023/12/29 08:31:14;;;;;;;;;;;7.60;99.90;;;;;;5013080;28;19929;-76
2023/12/29 08:33:40;;;;;;;;;;;7.60;99.90;;;;;;5011318;28;19920;-77
2023/12/29 08:36:06;;;;;;;;;;;7.70;99.90;;;;;;5008591;28;19924;-77
2023/12/29 08:38:32;;;;;;;;;;;7.70;99.90;;;;;;5012830;28;19918;-78
2023/12/29 08:40:58;;;;;;;;;;;7.70;99.90;;;;;;5005844;28;19925;-77
2023/12/29 08:43:23;;;;;;;;;;;7.80;99.90;;;;;;5010859;28;19922;-78
2023/12/29 08:45:49;;;;;;;;;;;7.80;99.90;;;;;;5010666;28;20088;-77
2023/12/29 08:48:15;;;;;;;;;;;7.70;99.90;;;;;;5009638;28;20266;-76
2023/12/29 08:50:41;;;;;;;;;;;7.80;99.90;;;;;;5003726;28;19926;-77
2023/12/29 08:53:07;;;;;;;;;;;7.80;99.90;;;;;;5004200;28;19918;-77
2023/12/29 08:55:32;;;;;;;;;;;7.90;99.90;;;;;;5001855;28;19930;-79
2023/12/29 08:57:58;;;;;;;;;;;7.90;99.90;;;;;;5000999;28;19972;-77
2023/12/29 09:00:23;;;;;;;;;;;8.00;99.90;;;;;;5008272;28;19965;-78
2023/12/29 09:02:49;;;;;;;;;;;8.00;99.90;;;;;;5012683;28;20222;-78
2023/12/29 09:05:15;;;;;;;;;;;8.00;99.90;;;;;;5005734;28;19925;-77
2023/12/29 09:07:40;;;;;;;;;;;8.10;99.90;;;;;;5006960;28;20362;-78
2023/12/29 09:10:08;;;;;;;;;;;8.20;99.90;;;;;;5009258;28;19939;-77
2023/12/29 09:12:34;;;;;;;;;;;8.20;99.90;;;;;;5008698;28;20370;-75
2023/12/29 09:14:59;;;;;;;;;;;8.20;99.90;;;;;;5010828;28;20025;-76
2023/12/29 09:17:25;;;;;;;;;;;8.30;99.90;;;;;;5007453;28;19972;-76
2023/12/29 09:19:51;;;;;;;;;;;8.30;99.90;;;;;;5007921;28;19929;-76
2023/12/29 09:22:16;;;;;;;;;;;8.30;99.90;;;;;;5008914;28;20364;-77
2023/12/29 09:24:42;;;;;;;;;;;8.30;99.90;;;;;;5011397;28;20033;-77
2023/12/29 09:27:08;;;;;;;;;;;8.30;99.90;;;;;;5009830;28;19917;-77
2023/12/29 09:29:34;;;;;;;;;;;8.30;99.90;;;;;;5010508;28;19972;-77
2023/12/29 09:32:00;;;;;;;;;;;8.40;99.90;;;;;;5010482;28;20420;-76
2023/12/29 09:34:25;;;;;;;;;;;8.40;99.90;;;;;;5009243;28;19921;-77
2023/12/29 09:36:51;;;;;;;;;;;8.40;99.90;;;;;;5004520;28;19973;-77
2023/12/29 09:39:17;;;;;;;;;;;8.40;99.90;;;;;;5010249;28;19975;-77
2023/12/29 09:41:44;;;;;;;;;;;8.40;99.90;;;;;;5008775;28;19921;-77
2023/12/29 09:44:13;;;;;;;;;;;8.40;99.90;;;;;;5009235;28;20356;-76
2023/12/29 09:46:39;;;;;;;;;;;8.40;99.90;;;;;;5006079;28;20884;-76
2023/12/29 09:49:06;;;;;;;;;;;8.40;99.90;;;;;;5007891;28;19989;-76
2023/12/29 09:51:32;;;;;;;;;;;8.50;99.90;;;;;;5008728;28;19924;-77
2023/12/29 09:53:58;;;;;;;;;;;8.50;99.90;;;;;;5008127;28;19922;-76
2023/12/29 09:56:24;;;;;;;;;;;8.50;99.90;;;;;;5008236;28;19997;-76
2023/12/29 09:58:51;;;;;;;;;;;8.60;99.90;;;;;;5009958;28;20494;-77
2023/12/29 10:01:17;;;;;;;;;;;8.60;99.90;;;;;;5009342;28;19917;-77
2023/12/29 10:03:43;;;;;;;;;;;8.60;99.90;;;;;;5009500;28;19920;-77
2023/12/29 10:06:12;;;;;;;;;;;8.60;99.90;;;;;;5003235;28;19917;-76
2023/12/29 10:08:38;;;;;;;;;;;8.60;99.90;;;;;;5008264;28;19964;-76
2023/12/29 10:11:05;;;;;;;;;;;8.70;99.90;;;;;;5007882;28;19914;-77
2023/12/29 10:13:31;;;;;;;;;;;8.60;99.90;;;;;;5008718;28;19968;-77
2023/12/29 10:16:00;;;;;;;;;;;8.60;99.90;;;;;;5007466;28;20412;-78
2023/12/29 10:18:32;;;;;;;;;;;8.60;99.90;;;;;;5007799;28;19917;-77
2023/12/29 10:21:12;;;;;;;;;;;8.70;99.90;;;;;;5007755;28;19917;-77
2023/12/29 10:23:43;;;;;;;;;;;8.80;99.90;;;;;;5010031;28;19921;-77
2023/12/29 10:26:13;;;;;;;;;;;8.90;99.90;;;;;;5005796;28;20376;-77
2023/12/29 10:28:39;;;;;;;;;;;8.90;99.90;;;;;;5009049;28;20336;-77
2023/12/29 10:31:04;;;;;;;;;;;8.90;99.90;;;;;;5008258;28;19924;-77
2023/12/29 10:33:32;;;;;;;;;;;8.90;99.90;;;;;;5009149;28;19920;-77
2023/12/29 10:36:02;;;;;;;;;;;9.00;99.90;;;;;;5010266;28;19956;-78
2023/12/29 10:38:28;;;;;;;;;;;9.00;99.90;;;;;;5007179;28;19956;-76
2023/12/29 10:40:53;;;;;;;;;;;9.10;99.90;;;;;;5001002;28;20361;-78
2023/12/29 10:43:23;;;;;;;;;;;9.10;99.90;;;;;;5008377;28;20634;-78
2023/12/29 10:45:48;;;;;;;;;;;9.10;99.90;;;;;;5006088;28;20293;-77
2023/12/29 10:48:21;;;;;;;;;;;9.20;99.90;;;;;;5011966;28;19918;-78
2023/12/29 10:50:47;;;;;;;;;;;9.30;99.90;;;;;;5010758;28;19921;-79
2023/12/29 10:53:12;;;;;;;;;;;9.30;99.90;;;;;;5023537;28;20344;-77
2023/12/29 10:55:38;;;;;;;;;;;9.30;99.90;;;;;;5010947;28;20340;-78
2023/12/29 10:58:05;;;;;;;;;;;9.30;99.90;;;;;;5011260;28;19913;-76
2023/12/29 11:00:32;;;;;;;;;;;9.30;99.90;;;;;;5012321;28;19914;-79
2023/12/29 11:02:58;;;;;;;;;;;9.40;99.90;;;;;;5008933;28;19920;-78
2023/12/29 11:05:27;;;;;;;;;;;9.40;99.90;;;;;;5008255;28;19922;-77
2023/12/29 11:07:54;;;;;;;;;;;9.50;99.90;;;;;;5006550;28;19956;-79
2023/12/29 11:10:23;;;;;;;;;;;9.60;99.90;;;;;;5006480;28;19914;-77
2023/12/29 11:12:49;;;;;;;;;;;9.50;99.90;;;;;;5007398;28;19917;-77
2023/12/29 11:15:15;;;;;;;;;;;9.60;99.90;;;;;;4998356;28;19960;-77
2023/12/29 11:17:49;;;;;;;;;;;9.70;99.90;;;;;;4993875;28;19937;-76
2023/12/29 11:20:16;;;;;;;;;;;9.70;99.90;;;;;;5001550;28;20324;-76
2023/12/29 11:22:43;;;;;;;;;;;9.80;99.90;;;;;;5003562;28;20008;-76
2023/12/29 11:25:09;;;;;;;;;;;9.80;99.90;;;;;;4995054;28;19925;-75
2023/12/29 11:27:35;;;;;;;;;;;9.80;99.90;;;;;;5000514;28;20187;-77
2023/12/29 11:30:01;;;;;;;;;;;9.80;99.90;;;;;;4993311;28;19921;-76
2023/12/29 11:32:34;;;;;;;;;;;9.70;99.90;;;;;;5008145;28;20024;-77
2023/12/29 11:35:10;;;;;;;;;;;9.70;99.90;;;;;;5003393;28;19976;-77
2023/12/29 11:37:43;;;;;;;;;;;9.70;99.90;;;;;;5006051;28;19964;-77
2023/12/29 11:40:19;;;;;;;;;;;9.60;99.90;;;;;;5001446;28;19913;-76
2023/12/29 11:42:47;;;;;;;;;;;9.50;99.90;;;;;;4996705;28;19920;-77
2023/12/29 11:45:35;;;;;;;;;;;9.50;99.90;;;;;;5003350;28;20270;-76
2023/12/29 11:48:02;;;;;;;;;;;9.40;99.90;;;;;;5002377;28;20695;-77
2023/12/29 11:50:32;;;;;;;;;;;9.40;99.90;;;;;;5004562;28;19928;-77
2023/12/29 11:52:58;;;;;;;;;;;9.40;99.90;;;;;;4999303;28;19944;-79
2023/12/29 11:55:31;;;;;;;;;;;9.30;99.90;;;;;;5002169;28;19929;-77
2023/12/29 11:57:57;;;;;;;;;;;9.30;99.90;;;;;;5004505;28;19925;-76
2023/12/29 12:00:46;;;;;;;;;;;9.30;99.90;;;;;;5003506;28;19925;-77
2023/12/29 12:03:20;;;;;;;;;;;9.30;99.90;;;;;;5003091;28;19913;-77
2023/12/29 12:05:47;;;;;;;;;;;9.30;99.90;;;;;;5002452;28;19992;-75
2023/12/29 12:08:26;;;;;;;;;;;9.30;99.90;;;;;;5003955;28;19914;-76
2023/12/29 12:10:52;;;;;;;;;;;9.30;99.90;;;;;;5000073;28;20374;-77
2023/12/29 12:54:19;;;;;;;2.22;1.33;;;8.70;99.90;;;;;;5123839;27;20182;-73
2023/12/29 12:56:46;;;;;;;2.05;0.75;;;9.20;99.90;;;;;;5098657;28;20039;-74
2023/12/29 12:59:13;;;;;;;1.13;0.80;;;9.20;99.90;;;;;;5086191;28;20040;-75
2023/12/29 13:01:39;;;;;;;2.95;0.70;;;9.30;99.90;;;;;;5078376;27;20027;-75
2023/12/29 13:04:06;;;;;;;2.88;0.90;;;9.30;99.90;;;;;;5089982;27;20033;-74
2023/12/29 13:06:33;;;;;;;2.13;0.80;;;9.30;99.90;;;;;;5016622;28;20026;-74
2023/12/29 13:09:02;;;;;;;1.25;0.70;;;9.30;99.90;;;;;;4931679;28;20044;-75
2023/12/29 13:11:27;;;;;;;1.08;0.90;;;9.30;99.90;;;;;;4774482;29;20515;-76
2023/12/29 13:13:57;;;;;;;2.25;0.93;;;9.30;99.90;;;;;;4646571;30;20040;-75
2023/12/29 13:16:33;;;;;;;1.15;0.50;;;9.30;99.90;;;;;;4609563;30;20436;-75
2023/12/29 13:20:47;;;;;;;2.25;0.70;;;9.30;99.90;;;;;;5053835;28;20410;-74
2023/12/29 13:23:14;;;;;;;1.23;0.77;;;9.30;99.90;;;;;;5042563;28;20048;-75
2023/12/29 13:25:42;;;;;;;0.88;0.68;;;9.30;99.90;;;;;;5040079;28;20054;-76
2023/12/29 13:28:09;;;;;;;3.55;0.90;;;9.30;99.90;;;;;;5064954;23;20512;-78
2023/12/29 13:30:36;;;;;;;0.90;0.90;;;9.30;99.90;;;;;;5026088;28;20033;-78
2023/12/29 13:33:11;;;;;;;0.85;0.77;;;9.30;99.90;;;;;;5022555;28;20038;-78
2023/12/29 13:35:46;;;;;;;0.60;0.60;;;9.30;99.90;;;;;;5040457;28;20359;-78
2023/12/29 13:38:19;;;;;;;0.70;0.63;;;9.30;99.90;;;;;;5044880;28;20061;-78
2023/12/29 13:40:59;;;;;;;1.10;0.80;;;9.30;99.90;;;;;;5030485;28;20080;-78
2023/12/29 13:43:26;;;;;;;2.00;0.73;;;9.30;99.90;;;;;;5026759;28;20030;-78
2023/12/29 13:45:52;;;;;;;0.82;0.70;;;9.20;99.90;;;;;;5022576;28;20025;-78
2023/12/29 13:48:19;;;;;;;1.33;0.80;;;9.20;99.90;;;;;;5028331;28;20051;-77
2023/12/29 13:50:48;;;;;;;1.13;0.77;;;9.20;99.90;;;;;;5036139;28;20054;-78
2023/12/29 13:53:18;;;;;;;0.90;0.70;;;9.20;99.90;;;;;;5023688;28;20033;-77
2023/12/29 13:55:44;;;;;;;2.13;0.82;;;9.20;99.90;;;;;;5042396;28;20064;-77
2023/12/29 13:58:11;;;;;;;3.38;1.05;;;9.20;99.90;;;;;;5044212;28;20872;-77
2023/12/29 14:00:38;;;;;;;1.27;0.98;;;9.20;99.90;;;;;;5043931;28;20457;-78
2023/12/29 14:03:14;;;;;;;0.80;0.73;;;9.10;99.90;;;;;;5044515;28;20029;-77
2023/12/29 14:05:55;;;;;;;;;;;9.10;99.90;;;;;;5039205;28;20029;-77
2023/12/29 14:08:38;;;;;;;1.45;0.65;;;9.20;99.90;;;;;;5036013;28;19909;-78
2023/12/29 14:11:08;;;;;;;2.90;1.00;;;9.20;99.90;;;;;;5037897;28;20041;-78
2023/12/29 14:13:35;;;;;;;0.60;0.50;;;9.20;99.90;;;;;;5040313;28;20534;-78
2023/12/29 14:16:01;;;;;;;0.65;0.60;;;9.10;99.90;;;;;;5039439;28;20041;-78
2023/12/29 14:18:52;;;;;;;0.90;0.80;;;9.10;99.90;;;;;;5044436;28;20030;-78
2023/12/29 14:21:33;;;;;;;1.10;0.68;;;9.10;99.90;;;;;;5043256;28;20509;-77
2023/12/29 14:24:00;;;;;;;1.05;0.73;;;9.10;99.90;;;;;;5008443;28;20045;-77
2023/12/29 14:26:25;;;;;;;0.80;0.80;;;9.10;99.90;;;;;;5026233;28;20025;-78
2023/12/29 14:29:05;;;;;;;1.60;0.90;;;9.10;99.90;;;;;;5036001;28;20632;-77
2023/12/29 14:31:38;;;;;;;2.22;0.80;;;9.10;99.90;;;;;;5029247;28;20104;-78
2023/12/29 14:34:05;;;;;;;1.90;1.00;;;9.10;99.90;;;;;;5029538;28;20029;-77
2023/12/29 14:36:32;;;;;;;1.80;0.90;;;9.00;99.90;;;;;;4996098;28;20435;-78
2023/12/29 14:38:58;;;;;;;1.40;0.90;;;9.10;99.90;;;;;;5028284;28;20037;-78
2023/12/29 14:41:24;;;;;;;1.40;0.70;;;9.00;99.90;;;;;;5030457;28;20048;-77
2023/12/29 14:43:51;;;;;;;0.88;0.80;;;9.00;99.90;;;;;;5011866;28;20018;-78
2023/12/29 14:46:16;;;;;;;3.22;0.85;;;9.00;99.90;;;;;;5008072;28;20722;-78
2023/12/29 14:48:43;;;;;;;0.60;0.60;;;9.00;99.90;;;;;;5023916;28;20029;-77
2023/12/29 14:51:09;;;;;;;1.23;0.70;;;9.10;99.90;;;;;;5012081;28;20092;-78
2023/12/29 14:53:34;;;;;;;1.83;0.88;;;9.00;99.90;;;;;;5023935;28;20029;-78
2023/12/29 14:56:00;;;;;;;0.70;0.70;;;9.00;99.90;;;;;;4984994;28;20061;-78
2023/12/29 14:58:26;;;;;;;1.77;0.80;;;9.00;99.90;;;;;;5015054;28;20045;-77